Time;durP1;ratioP1;P1;durP2;ratioP2;P2;SDS_P1;SDS_P2;PMS_P1;PMS_P2;Temp;Humidity;BMP_temperature;BMP_pressure;BME280_temperature;BME280_humidity;BME280_pressure;Samples;Min_cycle;Max_cycle;Signal;HPM_P1;HPM_P2
2022/09/19 00:01:47;;;;;;;6.20;3.08;;;;;;;6.72;80.33;96264.94;1622253;88;25786;-93
2022/09/19 00:04:21;;;;;;;4.35;3.20;;;;;;;6.74;80.36;96261.52;1619002;88;27445;-93
2022/09/19 00:06:50;;;;;;;4.05;2.80;;;;;;;6.78;80.38;96261.38;1617709;88;25953;-91
2022/09/19 00:09:21;;;;;;;4.17;2.85;;;;;;;6.82;80.45;96259.92;1618644;88;25809;-92
2022/09/19 00:11:50;;;;;;;4.45;2.62;;;;;;;6.86;80.54;96263.83;1618719;88;26867;-93
2022/09/19 00:14:22;;;;;;;6.92;3.00;;;;;;;6.90;80.51;96267.39;1619074;88;25327;-92
2022/09/19 00:16:49;;;;;;;7.83;3.42;;;;;;;6.92;80.56;96258.62;1619159;88;27493;-93
2022/09/19 00:19:19;;;;;;;3.52;2.92;;;;;;;6.94;80.54;96257.89;1598769;88;26444;-94
2022/09/19 00:21:48;;;;;;;6.08;3.17;;;;;;;6.96;80.57;96252.61;1619005;88;25810;-94
2022/09/19 00:27:09;;;;;;;5.92;3.00;;;;;;;6.99;80.70;96244.14;1618748;88;26603;-94
2022/09/19 00:29:37;;;;;;;4.60;3.02;;;;;;;7.02;80.80;96236.16;1619076;88;27391;-94
2022/09/19 00:32:12;;;;;;;4.55;2.72;;;;;;;7.02;80.87;96249.56;1618539;88;25900;-94
2022/09/19 00:34:42;;;;;;;4.60;3.00;;;;;;;7.05;80.88;96246.45;1618965;88;25292;-93
2022/09/19 00:37:10;;;;;;;6.40;2.67;;;;;;;7.07;80.95;96240.36;1618856;88;25990;-94
2022/09/19 00:39:37;;;;;;;5.12;2.80;;;;;;;7.09;80.98;96243.66;1618876;85;25753;-93
2022/09/19 00:42:04;;;;;;;4.78;2.98;;;;;;;7.13;81.03;96243.50;1670021;85;27517;-90
2022/09/19 00:44:36;;;;;;;5.22;3.20;;;;;;;7.15;81.09;96238.74;1669948;85;25791;-91
2022/09/19 00:47:14;;;;;;;8.48;2.92;;;;;;;7.16;81.17;96236.36;1670205;85;25807;-90
2022/09/19 00:49:45;;;;;;;5.72;3.02;;;;;;;7.17;81.18;96235.33;1663873;85;26008;-89
2022/09/19 00:52:19;;;;;;;6.47;3.17;;;;;;;7.19;81.22;96235.94;1670150;85;25932;-92
2022/09/19 00:54:49;;;;;;;4.42;3.22;;;;;;;7.22;81.26;96240.36;1670163;85;27439;-92
2022/09/19 00:57:16;;;;;;;5.67;3.62;;;;;;;7.24;81.32;96241.48;1670048;85;25800;-89
2022/09/19 00:59:47;;;;;;;5.50;3.40;;;;;;;7.28;81.37;96237.30;1670001;85;25755;-91
2022/09/19 01:02:22;;;;;;;4.53;3.33;;;;;;;7.30;81.36;96233.88;1670146;85;25926;-89
2022/09/19 01:04:48;;;;;;;4.80;3.55;;;;;;;7.33;81.33;96235.31;1670205;85;25874;-88
2022/09/19 01:07:35;;;;;;;5.30;2.95;;;;;;;7.34;81.40;96231.07;1670236;85;27366;-90
2022/09/19 01:10:48;;;;;;;4.40;2.95;;;;;;;7.36;81.40;96230.85;1669576;85;25720;-90
2022/09/19 01:13:38;;;;;;;3.65;2.67;;;;;;;7.39;81.46;96232.56;1670201;85;25731;-86
2022/09/19 01:16:24;;;;;;;4.35;2.95;;;;;;;7.42;81.43;96229.44;1670315;85;25842;-88
2022/09/19 01:18:52;;;;;;;4.22;2.87;;;;;;;7.44;81.41;96228.70;1644667;85;25896;-90
2022/09/19 01:21:38;;;;;;;4.28;2.95;;;;;;;7.46;81.49;96229.31;1670297;85;27218;-89
2022/09/19 01:24:19;;;;;;;5.12;3.27;;;;;;;7.49;81.52;96230.71;1670460;85;25694;-85
2022/09/19 01:27:12;;;;;;;3.12;2.75;;;;;;;7.51;81.56;96226.77;1669823;85;25734;-85
2022/09/19 01:29:46;;;;;;;4.72;3.05;;;;;;;7.53;81.65;96223.34;1669956;85;26010;-85
2022/09/19 01:32:18;;;;;;;3.90;2.77;;;;;;;7.57;81.77;96229.93;1670043;85;25715;-86
2022/09/19 01:34:48;;;;;;;;;;;;;;;7.58;81.89;96228.89;1672003;85;27347;-85
2022/09/19 01:37:27;;;;;;;5.78;3.00;;;;;;;7.58;82.04;96234.26;1670206;85;25731;-85
2022/09/19 01:39:52;;;;;;;3.90;2.60;;;;;;;7.58;82.06;96237.47;1669892;85;25721;-86
2022/09/19 01:42:22;;;;;;;4.58;3.42;;;;;;;7.62;82.03;96236.48;1669695;85;26796;-87
2022/09/19 01:44:50;;;;;;;4.20;2.75;;;;;;;7.62;82.17;96237.83;1670238;85;25933;-85
2022/09/19 01:47:25;;;;;;;4.37;2.50;;;;;;;7.61;82.24;96241.58;1670096;85;27419;-85
2022/09/19 01:50:00;;;;;;;4.95;2.87;;;;;;;7.62;82.31;96231.11;1670128;85;26346;-86
2022/09/19 01:52:41;;;;;;;3.37;2.83;;;;;;;7.63;82.38;96233.58;1670370;85;25727;-88
2022/09/19 01:55:22;;;;;;;4.75;3.10;;;;;;;7.67;82.42;96231.28;1669864;85;26145;-87
2022/09/19 01:58:28;;;;;;;4.33;2.85;;;;;;;7.70;82.47;96230.33;1670287;85;25754;-87
2022/09/19 02:01:16;;;;;;;3.75;2.35;;;;;;;7.74;82.50;96230.69;1651248;85;27417;-88
2022/09/19 02:04:02;;;;;;;2.77;2.50;;;;;;;7.78;82.56;96227.86;1668761;85;26181;-88
2022/09/19 02:06:42;;;;;;;2.62;2.22;;;;;;;7.84;82.54;96233.70;1669481;85;25785;-87
2022/09/19 02:09:36;;;;;;;3.85;2.80;;;;;;;7.86;82.48;96233.75;1669879;85;26037;-86
2022/09/19 02:12:06;;;;;;;3.50;2.08;;;;;;;7.88;82.44;96232.20;1666173;85;26037;-86
2022/09/19 02:14:36;;;;;;;2.30;2.10;;;;;;;7.89;82.48;96231.98;1670223;85;27457;-87
2022/09/19 02:17:14;;;;;;;2.22;2.02;;;;;;;7.92;82.48;96233.41;1669989;85;25937;-89
2022/09/19 02:19:48;;;;;;;2.40;2.05;;;;;;;7.92;82.56;96229.38;1670561;85;26603;-88
2022/09/19 02:22:32;;;;;;;1.82;1.72;;;;;;;7.90;82.63;96226.91;1669476;85;26070;-87
2022/09/19 02:25:05;;;;;;;3.95;2.00;;;;;;;7.92;82.62;96228.03;1670162;85;25844;-88
2022/09/19 02:27:38;;;;;;;2.17;1.85;;;;;;;7.95;82.59;96237.81;1669907;85;27417;-86
2022/09/19 02:30:08;;;;;;;2.52;1.80;;;;;;;7.94;82.68;96236.17;1669171;85;26426;-87
2022/09/19 02:32:36;;;;;;;3.47;1.92;;;;;;;7.96;82.68;96235.95;1670198;85;25843;-85
2022/09/19 02:35:05;;;;;;;5.35;1.95;;;;;;;7.98;82.72;96237.87;1670164;85;25991;-86
2022/09/19 02:37:46;;;;;;;2.35;2.05;;;;;;;8.00;82.82;96234.96;1670243;85;25871;-87
2022/09/19 02:40:35;;;;;;;4.03;2.12;;;;;;;8.00;82.85;96236.30;1666485;85;27424;-86
2022/09/19 02:43:32;;;;;;;3.02;1.80;;;;;;;8.01;82.90;96237.95;1669645;85;25731;-85
2022/09/19 02:46:07;;;;;;;2.12;1.85;;;;;;;8.03;82.96;96250.65;1667633;85;25893;-86
2022/09/19 02:48:51;;;;;;;2.05;1.87;;;;;;;7.99;82.95;96239.52;1670130;85;26844;-87
2022/09/19 02:51:27;;;;;;;2.55;1.57;;;;;;;8.00;83.02;96251.09;1661582;85;26286;-86
2022/09/19 02:54:05;;;;;;;1.80;1.50;;;;;;;8.03;83.07;96243.92;1670070;85;27998;-86
2022/09/19 02:56:35;;;;;;;2.65;1.60;;;;;;;8.04;82.89;96247.74;1669990;85;25755;-86
2022/09/19 02:59:09;;;;;;;1.52;1.40;;;;;;;8.03;82.76;96251.47;1670005;85;26102;-88
2022/09/19 03:01:40;;;;;;;3.42;1.20;;;;;;;8.07;82.72;96251.85;1670000;85;26155;-87
2022/09/19 03:04:14;;;;;;;1.52;1.40;;;;;;;8.07;82.66;96260.73;1670188;85;25780;-87
2022/09/19 03:06:55;;;;;;;2.17;1.22;;;;;;;8.06;82.69;96262.30;1670027;85;27369;-88
2022/09/19 03:09:27;;;;;;;2.75;1.45;;;;;;;8.03;82.74;96258.71;1670043;85;25754;-86
2022/09/19 03:12:05;;;;;;;2.92;1.80;;;;;;;8.03;82.68;96260.88;1670219;85;33001;-88
2022/09/19 03:14:32;;;;;;;1.20;1.07;;;;;;;8.02;82.56;96263.27;1670206;85;25856;-88
2022/09/19 03:17:01;;;;;;;1.72;1.17;;;;;;;8.00;82.56;96261.31;1670267;85;25943;-88
2022/09/19 03:19:30;;;;;;;3.22;1.30;;;;;;;7.98;82.54;96268.77;1669954;85;27420;-88
2022/09/19 03:21:58;;;;;;;2.40;1.30;;;;;;;7.93;82.51;96277.52;1670028;85;25945;-87
2022/09/19 03:24:26;;;;;;;2.50;1.30;;;;;;;7.93;82.48;96282.07;1651053;85;25909;-88
2022/09/19 03:26:52;;;;;;;1.35;1.05;;;;;;;7.95;82.44;96286.70;1670081;85;26773;-89
2022/09/19 03:29:19;;;;;;;1.55;1.20;;;;;;;7.90;82.48;96289.22;1670254;85;25731;-88
2022/09/19 03:31:47;;;;;;;2.00;1.47;;;;;;;7.86;82.46;96292.04;1670040;85;27431;-87
2022/09/19 03:34:14;;;;;;;2.22;1.35;;;;;;;7.82;82.56;96284.97;1670005;85;26033;-87
2022/09/19 03:36:40;;;;;;;1.60;1.40;;;;;;;7.81;82.67;96286.53;1670293;85;25781;-88
2022/09/19 03:39:09;;;;;;;1.32;1.22;;;;;;;7.75;82.77;96293.59;1669490;85;26343;-90
2022/09/19 03:41:38;;;;;;;3.72;1.80;;;;;;;7.74;82.80;96292.47;1670042;85;25793;-88
2022/09/19 03:44:04;;;;;;;1.50;1.40;;;;;;;7.75;82.84;96292.77;1669815;85;27425;-87
2022/09/19 03:46:33;;;;;;;3.75;1.40;;;;;;;7.77;82.89;96294.20;1669698;85;25814;-87
2022/09/19 03:49:00;;;;;;;1.37;1.25;;;;;;;7.74;82.90;96301.34;1670166;85;25721;-87
2022/09/19 03:51:30;;;;;;;1.17;1.07;;;;;;;7.74;82.74;96301.34;1669922;85;26099;-88
2022/09/19 03:53:57;;;;;;;2.25;1.15;;;;;;;7.75;82.75;96300.83;1670125;85;25698;-88
2022/09/19 03:56:24;;;;;;;1.50;1.40;;;;;;;7.77;82.74;96302.78;1670190;85;27378;-90
2022/09/19 03:58:50;;;;;;;3.22;1.20;;;;;;;7.76;82.70;96309.19;1669936;85;25717;-89
2022/09/19 04:01:17;;;;;;;2.17;1.30;;;;;;;7.73;82.66;96310.45;1669775;85;25755;-90
2022/09/19 04:03:44;;;;;;;1.50;1.32;;;;;;;7.73;82.62;96310.99;1670172;85;26760;-89
2022/09/19 04:06:11;;;;;;;1.30;1.20;;;;;;;7.70;82.61;96312.77;1670115;85;25783;-87
2022/09/19 04:08:37;;;;;;;1.65;1.15;;;;;;;7.65;82.31;96316.62;1670113;85;27357;-89
2022/09/19 04:11:04;;;;;;;2.00;1.30;;;;;;;7.64;82.36;96319.00;1670060;85;25766;-86
2022/09/19 04:13:33;;;;;;;2.25;1.30;;;;;;;7.66;82.53;96316.92;1670129;85;25856;-89
2022/09/19 04:16:00;;;;;;;1.40;1.30;;;;;;;7.68;82.48;96321.05;1669936;85;26001;-88
2022/09/19 04:18:27;;;;;;;1.40;1.30;;;;;;;7.72;82.29;96324.12;1670262;85;25781;-88
2022/09/19 04:20:54;;;;;;;1.40;1.30;;;;;;;7.76;82.30;96323.97;1670229;85;26854;-86
2022/09/19 04:23:20;;;;;;;2.67;1.45;;;;;;;7.78;82.27;96324.57;1669978;85;25882;-88
2022/09/19 04:25:47;;;;;;;2.70;1.62;;;;;;;7.79;82.22;96321.67;1670130;85;26096;-87
2022/09/19 04:28:17;;;;;;;1.67;1.50;;;;;;;7.84;82.15;96331.25;1670059;85;26052;-87
2022/09/19 04:30:43;;;;;;;1.87;1.45;;;;;;;7.85;82.07;96334.72;1669770;85;25904;-88
2022/09/19 04:33:13;;;;;;;2.83;1.50;;;;;;;7.84;82.14;96327.73;1670115;85;27450;-88
2022/09/19 04:35:41;;;;;;;1.82;1.40;;;;;;;7.83;82.16;96333.63;1670045;85;26057;-87
2022/09/19 04:38:12;;;;;;;1.45;1.30;;;;;;;7.85;82.19;96330.70;1670026;85;25814;-87
2022/09/19 04:40:41;;;;;;;2.08;1.15;;;;;;;7.86;82.17;96333.69;1670096;85;25867;-88
2022/09/19 04:43:13;;;;;;;1.55;1.20;;;;;;;7.84;82.05;96338.48;1669787;85;25727;-87
2022/09/19 04:45:44;;;;;;;1.47;1.35;;;;;;;7.78;82.11;96337.48;1670455;85;28248;-85
2022/09/19 04:48:08;;;;;;;3.10;1.27;;;;;;;7.78;82.01;96338.83;1669970;85;25938;-86
2022/09/19 04:50:36;;;;;;;1.17;1.07;;;;;;;7.79;81.93;96340.47;1670268;85;25912;-86
2022/09/19 04:53:05;;;;;;;1.12;1.00;;;;;;;7.80;81.98;96345.33;1670153;85;26080;-86
2022/09/19 04:55:32;;;;;;;1.62;1.40;;;;;;;7.80;82.07;96343.98;1670155;85;25810;-85
2022/09/19 04:58:01;;;;;;;1.77;1.35;;;;;;;7.83;82.17;96344.89;1670066;85;27376;-86
2022/09/19 05:00:38;;;;;;;1.87;1.57;;;;;;;7.86;82.19;96349.80;1669975;85;25868;-86
2022/09/19 05:03:09;;;;;;;1.98;1.45;;;;;;;7.89;82.13;96355.57;1670090;85;25763;-86
2022/09/19 05:05:37;;;;;;;1.50;1.40;;;;;;;7.93;81.98;96351.41;1670263;85;26038;-85
2022/09/19 05:08:05;;;;;;;2.47;1.30;;;;;;;7.95;81.76;96359.26;1670315;85;25778;-85
2022/09/19 05:10:33;;;;;;;1.62;1.50;;;;;;;7.95;81.72;96359.26;1670033;85;28335;-85
2022/09/19 05:13:00;;;;;;;2.22;1.60;;;;;;;7.97;81.70;96364.42;1669964;85;25723;-85
2022/09/19 05:15:26;;;;;;;2.10;1.70;;;;;;;7.98;81.64;96367.38;1670287;85;25738;-84
2022/09/19 05:17:54;;;;;;;3.42;1.65;;;;;;;7.99;81.53;96362.30;1670207;85;25795;-85
2022/09/19 05:20:26;;;;;;;3.12;1.67;;;;;;;8.01;81.46;96371.80;1670360;85;25793;-85
2022/09/19 05:22:58;;;;;;;3.40;1.92;;;;;;;8.00;81.29;96370.15;1670475;85;27539;-86
2022/09/19 05:25:30;;;;;;;3.72;2.05;;;;;;;8.00;81.21;96377.39;1670148;85;25758;-87
2022/09/19 05:27:58;;;;;;;2.33;1.98;;;;;;;7.98;81.14;96376.27;1670215;85;35298;-87
2022/09/19 05:30:26;;;;;;;3.77;1.98;;;;;;;7.96;81.16;96379.72;1669986;85;26049;-86
2022/09/19 05:32:52;;;;;;;2.50;2.30;;;;;;;7.95;81.10;96384.27;1670049;85;25891;-87
2022/09/19 05:35:20;;;;;;;2.55;2.35;;;;;;;7.96;81.08;96390.47;1670382;85;27380;-86
2022/09/19 05:37:47;;;;;;;2.92;2.27;;;;;;;7.96;81.05;96390.47;1670176;85;25841;-85
2022/09/19 05:40:14;;;;;;;4.03;2.58;;;;;;;7.96;81.09;96386.44;1670202;85;25876;-87
2022/09/19 05:42:42;;;;;;;2.90;2.60;;;;;;;7.95;81.16;96388.30;1670129;84;25969;-86
2022/09/19 05:45:11;;;;;;;3.27;2.47;;;;;;;7.94;81.26;96388.00;1670222;85;25686;-88
2022/09/19 05:47:39;;;;;;;3.20;2.45;;;;;;;7.90;81.21;96398.05;1669828;85;27480;-86
2022/09/19 05:50:10;;;;;;;6.42;2.80;;;;;;;7.91;81.25;96401.03;1670178;85;25761;-88
2022/09/19 05:55:28;;;;;;;5.87;3.30;;;;;;;7.92;81.33;96402.69;1670031;85;26251;-87
2022/09/19 05:57:59;;;;;;;3.00;2.70;;;;;;;7.93;81.38;96409.19;1670261;85;25860;-87
2022/09/19 06:00:28;;;;;;;5.75;3.25;;;;;;;7.91;81.34;96409.92;1670233;85;27430;-87
2022/09/19 06:02:57;;;;;;;3.92;3.27;;;;;;;7.90;81.42;96419.02;1670050;85;25767;-87
2022/09/19 06:05:25;;;;;;;5.33;3.37;;;;;;;7.89;81.53;96415.20;1670079;85;25798;-87
2022/09/19 06:07:51;;;;;;;3.77;3.05;;;;;;;7.85;81.61;96413.47;1670123;85;26689;-88
2022/09/19 06:10:19;;;;;;;5.35;3.33;;;;;;;7.89;81.76;96420.58;1670142;85;25798;-88
2022/09/19 06:12:45;;;;;;;4.28;3.37;;;;;;;7.91;81.84;96421.19;1670320;85;27566;-86
2022/09/19 06:15:13;;;;;;;3.98;3.08;;;;;;;7.96;81.92;96428.09;1670407;85;25921;-86
2022/09/19 06:17:40;;;;;;;5.28;3.20;;;;;;;7.97;81.92;96430.25;1670567;85;25738;-86
2022/09/19 06:20:07;;;;;;;3.50;2.60;;;;;;;8.01;81.80;96427.41;1670356;85;27263;-87
2022/09/19 06:22:34;;;;;;;5.70;4.10;;;;;;;8.06;81.75;96433.79;1670181;85;25847;-88
2022/09/19 06:25:01;;;;;;;6.12;4.58;;;;;;;8.11;81.63;96429.91;1670168;85;27564;-88
2022/09/19 06:27:28;;;;;;;6.47;4.75;;;;;;;8.13;81.61;96434.55;1669942;85;25813;-86
2022/09/19 06:29:55;;;;;;;6.08;3.75;;;;;;;8.19;81.71;96443.61;1670298;85;25717;-88
2022/09/19 06:32:21;;;;;;;4.50;3.30;;;;;;;8.24;81.84;96439.73;1670139;85;26036;-83
2022/09/19 06:34:48;;;;;;;4.08;3.20;;;;;;;8.32;81.89;96443.53;1670300;85;25745;-84
2022/09/19 06:37:15;;;;;;;3.45;2.75;;;;;;;8.36;81.68;96434.48;1670202;85;27423;-83
2022/09/19 06:39:41;;;;;;;3.15;2.58;;;;;;;8.42;81.38;96436.30;1670146;85;25683;-87
2022/09/19 06:42:08;;;;;;;5.42;3.00;;;;;;;8.45;81.18;96438.56;1670155;84;26457;-82
2022/09/19 06:44:34;;;;;;;3.85;3.35;;;;;;;8.48;81.10;96438.92;1669870;85;26925;-87
2022/09/19 06:47:01;;;;;;;6.40;4.70;;;;;;;8.53;80.91;96446.33;1670328;85;25848;-85
2022/09/19 06:49:27;;;;;;;7.20;3.12;;;;;;;8.56;80.83;96445.90;1670098;85;27350;-85
2022/09/19 06:51:57;;;;;;;3.92;2.80;;;;;;;8.58;80.92;96448.64;1670218;85;26390;-86
2022/09/19 06:54:23;;;;;;;4.33;3.15;;;;;;;8.61;80.68;96455.45;1670215;85;25854;-86
2022/09/19 06:56:51;;;;;;;5.72;3.12;;;;;;;8.62;80.71;96457.92;1670149;85;26746;-83
2022/09/19 06:59:18;;;;;;;5.47;2.85;;;;;;;8.65;80.56;96456.66;1670191;85;25237;-84
2022/09/19 07:01:46;;;;;;;3.47;3.12;;;;;;;8.64;80.72;96467.13;1669943;85;28309;-84
2022/09/19 07:04:13;;;;;;;3.58;3.08;;;;;;;8.65;80.92;96460.70;1669821;85;25894;-82
2022/09/19 07:06:39;;;;;;;3.98;2.10;;;;;;;8.68;80.99;96461.61;1670282;85;26282;-88
2022/09/19 07:09:07;;;;;;;4.28;2.62;;;;;;;8.69;80.62;96464.60;1670184;85;26056;-84
2022/09/19 07:11:36;;;;;;;4.47;2.85;;;;;;;8.71;80.65;96454.94;1670132;85;25918;-87
2022/09/19 07:14:04;;;;;;;5.70;3.00;;;;;;;8.76;80.74;96461.31;1670338;85;27446;-82
2022/09/19 07:16:32;;;;;;;6.35;3.85;;;;;;;8.80;80.74;96465.20;1670160;85;25869;-81
2022/09/19 07:18:59;;;;;;;7.28;3.77;;;;;;;8.85;80.83;96469.38;1670010;85;26298;-81
2022/09/19 07:21:25;;;;;;;6.40;3.67;;;;;;;8.85;80.77;96466.69;1670392;85;25958;-85
2022/09/19 07:23:53;;;;;;;6.40;4.10;;;;;;;8.84;80.80;96470.42;1670230;85;25772;-85
2022/09/19 07:26:21;;;;;;;5.05;3.47;;;;;;;8.86;80.64;96467.00;1670328;85;27536;-88
2022/09/19 07:28:48;;;;;;;4.62;3.58;;;;;;;8.86;80.40;96475.06;1670361;85;25796;-88
2022/09/19 07:31:14;;;;;;;7.10;3.62;;;;;;;8.88;80.27;96475.67;1670203;85;25786;-89
2022/09/19 07:33:41;;;;;;;6.55;3.98;;;;;;;8.91;80.16;96476.58;1670211;85;26527;-86
2022/09/19 07:36:10;;;;;;;4.60;3.52;;;;;;;8.91;80.21;96480.62;1670354;85;25964;-87
2022/09/19 07:38:36;;;;;;;4.05;3.30;;;;;;;8.86;80.08;96476.41;1670387;85;27432;-88
2022/09/19 07:41:03;;;;;;;4.92;3.55;;;;;;;8.82;80.06;96483.27;1670048;85;25778;-88
2022/09/19 07:43:30;;;;;;;5.87;4.00;;;;;;;8.82;80.43;96487.31;1669954;85;25838;-88
2022/09/19 07:45:56;;;;;;;5.47;3.65;;;;;;;8.84;80.68;96491.12;1669833;85;26026;-88
2022/09/19 07:48:24;;;;;;;4.78;3.62;;;;;;;8.86;80.82;96488.52;1670179;85;26361;-85
2022/09/19 07:50:50;;;;;;;5.05;3.62;;;;;;;8.91;80.92;96488.69;1670070;85;28143;-89
2022/09/19 07:53:23;;;;;;;3.80;3.40;;;;;;;8.95;80.91;96489.88;1669772;85;25824;-88
2022/09/19 07:55:56;;;;;;;3.62;2.95;;;;;;;8.96;80.73;96494.20;1669993;85;25825;-91
2022/09/19 07:58:24;;;;;;;;;;;;;;;8.96;80.23;96490.69;1672193;85;26914;-87
2022/09/19 08:00:52;;;;;;;5.08;3.27;;;;;;;8.96;80.16;96490.17;1670105;85;25790;-90
2022/09/19 08:03:20;;;;;;;3.98;2.72;;;;;;;8.94;80.10;96490.91;1670396;85;27143;-88
2022/09/19 08:05:51;;;;;;;4.08;2.98;;;;;;;8.94;79.98;96491.44;1670176;85;25747;-90
2022/09/19 08:08:21;;;;;;;6.35;2.70;;;;;;;8.91;79.81;96491.38;1670976;85;26005;-92
2022/09/19 08:10:47;;;;;;;7.47;3.33;;;;;;;8.89;79.82;96489.43;1671187;85;26940;-86
2022/09/19 08:13:17;;;;;;;4.80;3.47;;;;;;;8.86;79.79;96487.17;1670535;85;26341;-87
2022/09/19 08:15:46;;;;;;;4.72;3.67;;;;;;;8.87;79.84;96494.20;1670052;85;28260;-88
2022/09/19 08:18:17;;;;;;;3.67;2.80;;;;;;;8.89;79.92;96493.99;1669906;85;25825;-84
2022/09/19 08:20:44;;;;;;;3.75;3.30;;;;;;;8.92;80.02;96497.06;1670013;85;25802;-90
2022/09/19 08:23:13;;;;;;;4.05;3.65;;;;;;;8.96;79.98;96496.08;1670221;85;25998;-87
2022/09/19 08:25:46;;;;;;;4.12;3.22;;;;;;;8.95;79.71;96494.42;1670083;85;25856;-87
2022/09/19 08:28:11;;;;;;;3.30;2.87;;;;;;;8.93;79.50;96500.06;1670021;85;27975;-84
2022/09/19 08:30:38;;;;;;;5.40;3.33;;;;;;;8.90;79.31;96504.53;1670037;85;25894;-91
2022/09/19 08:33:06;;;;;;;6.45;3.17;;;;;;;8.86;79.31;96511.40;1670151;85;25708;-81
2022/09/19 08:35:37;;;;;;;4.47;3.22;;;;;;;8.84;79.44;96505.41;1669921;85;26039;-87
2022/09/19 08:38:04;;;;;;;5.35;3.47;;;;;;;8.85;79.51;96514.30;1669805;85;25743;-86
2022/09/19 08:40:57;;;;;;;3.30;2.90;;;;;;;8.87;79.56;96517.09;1670190;85;28158;-84
2022/09/19 08:43:53;;;;;;;9.73;3.40;;;;;;;8.88;79.67;96522.77;1669935;84;25793;-86
2022/09/19 08:46:34;;;;;;;8.98;4.85;;;;;;;8.90;79.67;96519.86;1669909;85;26381;-89
2022/09/19 08:49:18;;;;;;;7.37;3.92;;;;;;;8.89;79.56;96521.73;1670160;85;25999;-87
2022/09/19 08:52:05;;;;;;;7.08;3.60;;;;;;;8.90;79.51;96522.03;1670164;85;25754;-87
2022/09/19 08:54:40;;;;;;;6.28;3.65;;;;;;;8.94;79.50;96526.42;1670200;85;27422;-85
2022/09/19 08:57:25;;;;;;;6.62;3.85;;;;;;;8.93;79.62;96526.16;1669979;85;25793;-87
2022/09/19 08:59:56;;;;;;;6.30;3.90;;;;;;;8.95;79.46;96529.42;1669903;85;25523;-84
2022/09/19 09:02:26;;;;;;;;;;;;;;;8.95;79.56;96526.73;1672705;85;25986;-81
2022/09/19 09:04:54;;;;;;;6.70;3.15;;;;;;;8.93;79.87;96528.32;1669915;85;25714;-85
2022/09/19 09:07:41;;;;;;;5.53;2.77;;;;;;;8.95;80.05;96532.94;1670072;85;27877;-89
2022/09/19 09:10:18;;;;;;;9.03;2.92;;;;;;;8.95;79.79;96526.20;1669930;85;25791;-90
2022/09/19 09:13:08;;;;;;;2.80;2.55;;;;;;;8.94;79.84;96527.25;1670092;85;25870;-86
2022/09/19 09:16:23;;;;;;;5.72;2.50;;;;;;;9.00;79.97;96529.06;1670186;85;26042;-82
2022/09/19 09:19:10;;;;;;;2.85;1.95;;;;;;;9.08;80.23;96527.94;1670229;85;25909;-88
2022/09/19 09:22:06;;;;;;;2.67;1.70;;;;;;;9.25;79.87;96524.15;1664543;85;27376;-87
2022/09/19 09:24:40;;;;;;;1.77;1.52;;;;;;;9.53;80.19;96523.09;1670400;85;25849;-86
2022/09/19 09:27:18;;;;;;;3.37;1.70;;;;;;;10.13;80.22;96529.04;1669814;85;25774;-81
2022/09/19 09:29:53;;;;;;;1.98;1.50;;;;;;;10.38;79.52;96521.11;1669994;85;26954;-89
2022/09/19 09:32:32;;;;;;;2.75;1.47;;;;;;;10.58;78.90;96522.66;1670230;85;25750;-87
2022/09/19 09:35:26;;;;;;;2.33;1.85;;;;;;;10.65;78.18;96522.83;1669730;85;27636;-83
2022/09/19 09:38:10;;;;;;;2.90;1.85;;;;;;;10.63;77.72;96526.81;1670085;85;25701;-85
2022/09/19 09:43:43;;;;;;;2.98;1.65;;;;;;;10.57;77.34;96519.66;1670165;85;26041;-89
2022/09/19 09:46:10;;;;;;;4.62;1.80;;;;;;;10.56;77.32;96528.28;1669331;85;25775;-83
2022/09/19 09:48:39;;;;;;;2.92;1.62;;;;;;;10.57;76.63;96528.58;1670296;85;27478;-82
2022/09/19 09:51:46;;;;;;;2.35;1.60;;;;;;;10.46;76.33;96532.91;1669894;85;25841;-82
2022/09/19 09:57:52;;;;;;;1.72;1.60;;;;;;;10.35;76.87;96524.27;1670096;85;26828;-82
2022/09/19 10:03:34;;;;;;;2.02;1.70;;;;;;;10.39;77.35;96534.87;1670076;85;28202;-83
2022/09/19 10:06:11;;;;;;;2.60;1.77;;;;;;;10.40;77.40;96533.81;1669931;85;25817;-81
2022/09/19 10:08:45;;;;;;;2.30;1.67;;;;;;;10.45;77.37;96525.87;1670320;85;25832;-82
2022/09/19 10:11:23;;;;;;;2.35;1.67;;;;;;;10.55;77.01;96529.86;1670299;85;25998;-83
2022/09/19 10:14:01;;;;;;;3.35;2.00;;;;;;;10.63;76.84;96525.46;1670324;85;25691;-85
2022/09/19 10:16:24;;;;;;;3.37;1.87;;;;;;;10.73;76.93;96533.31;1670086;85;27396;-85
2022/09/19 10:18:56;;;;;;;2.75;1.92;;;;;;;10.75;75.85;96531.17;1651110;85;25838;-86
2022/09/19 10:21:23;;;;;;;2.55;1.65;;;;;;;10.85;75.97;96531.14;1670302;85;25861;-83
2022/09/19 10:23:50;;;;;;;2.00;1.60;;;;;;;10.93;75.84;96528.91;1670334;85;26991;-87
2022/09/19 10:26:22;;;;;;;2.80;1.72;;;;;;;10.95;76.14;96525.45;1670405;85;25801;-83
2022/09/19 10:28:53;;;;;;;1.90;1.70;;;;;;;11.05;75.87;96529.72;1669623;85;27222;-83
2022/09/19 10:31:34;;;;;;;1.92;1.70;;;;;;;11.12;75.13;96527.71;1670315;85;25813;-84
2022/09/19 10:34:09;;;;;;;4.60;1.95;;;;;;;11.13;75.38;96533.41;1670295;85;25779;-84
2022/09/19 10:36:46;;;;;;;1.87;1.37;;;;;;;11.20;75.03;96530.60;1669324;85;26985;-83
2022/09/19 10:39:17;;;;;;;3.70;1.57;;;;;;;11.23;74.28;96534.72;1670147;85;26429;-83
2022/09/19 10:41:44;;;;;;;2.25;1.50;;;;;;;11.21;74.17;96541.70;1670205;85;27384;-86
2022/09/19 10:44:23;;;;;;;1.95;1.30;;;;;;;11.18;74.04;96541.64;1669865;85;25819;-84
2022/09/19 10:47:04;;;;;;;1.80;1.70;;;;;;;11.16;73.89;96543.75;1618683;88;26634;-83
2022/09/19 10:49:45;;;;;;;2.35;1.60;;;;;;;11.14;74.25;96549.91;1618643;88;26873;-82
2022/09/19 10:52:30;;;;;;;3.30;2.17;;;;;;;11.12;74.61;96553.38;1618797;88;25839;-83
2022/09/19 10:55:00;;;;;;;2.33;2.12;;;;;;;11.11;74.61;96561.18;1619030;88;28361;-84
2022/09/19 10:57:41;;;;;;;2.40;1.90;;;;;;;11.08;74.55;96565.72;1618767;88;26858;-86
2022/09/19 11:00:31;;;;;;;3.08;2.00;;;;;;;10.97;74.10;96564.37;1618591;88;25848;-83
2022/09/19 11:03:03;;;;;;;4.00;1.90;;;;;;;10.86;73.85;96560.61;1615805;88;26708;-89
2022/09/19 11:05:33;;;;;;;2.45;1.95;;;;;;;10.72;74.33;96560.53;1619104;88;25865;-88
2022/09/19 11:08:01;;;;;;;3.47;2.40;;;;;;;10.89;74.79;96556.06;1618750;88;27334;-90
2022/09/19 11:10:37;;;;;;;2.35;2.00;;;;;;;11.19;75.50;96554.62;1618344;88;25876;-89
2022/09/19 11:13:20;;;;;;;2.83;1.87;;;;;;;11.53;76.18;96546.17;1618718;88;25829;-88
2022/09/19 11:16:18;;;;;;;3.47;1.90;;;;;;;11.88;75.48;96545.58;1618754;88;26791;-89
2022/09/19 11:19:12;;;;;;;2.45;0.90;;;;;;;12.21;74.75;96564.33;1618881;88;25423;-91
2022/09/19 11:22:08;;;;;;;0.50;0.50;;;;;;;12.36;73.16;96587.62;1618913;88;28302;-90
2022/09/19 11:25:14;;;;;;;0.53;0.42;;;;;;;11.82;71.08;96592.52;1656407;85;25388;-90
2022/09/19 11:28:01;;;;;;;1.12;0.72;;;;;;;11.24;69.92;96598.47;1670044;85;25275;-87
2022/09/19 11:30:31;;;;;;;1.00;0.80;;;;;;;10.68;71.03;96610.62;1669735;85;26016;-90
2022/09/19 11:33:38;;;;;;;1.25;0.90;;;;;;;10.52;71.75;96614.79;1670254;85;25791;-85
2022/09/19 11:36:15;;;;;;;1.55;0.42;;;;;;;10.44;71.81;96617.30;1669230;85;28191;-83
2022/09/19 11:39:16;;;;;;;0.35;0.35;;;;;;;10.09;72.13;96608.21;1670271;85;25967;-83
2022/09/19 11:42:14;;;;;;;0.55;0.50;;;;;;;9.74;72.38;96610.20;1670321;85;25770;-83
2022/09/19 11:45:12;;;;;;;0.40;0.40;;;;;;;9.49;73.07;96601.37;1663098;85;26208;-85
2022/09/19 11:48:10;;;;;;;0.85;0.70;;;;;;;9.41;73.48;96598.98;1665226;85;25287;-84
2022/09/19 11:50:59;;;;;;;0.95;0.80;;;;;;;9.40;74.02;96600.02;1665683;86;27445;-86
2022/09/19 11:53:49;;;;;;;0.70;0.70;;;;;;;9.49;74.43;96600.02;1665267;86;26264;-84
2022/09/19 11:56:38;;;;;;;0.82;0.68;;;;;;;9.49;74.61;96602.71;1665563;85;25898;-88
2022/09/19 11:59:46;;;;;;;1.47;0.70;;;;;;;9.63;74.79;96600.17;1664980;85;26434;-85
2022/09/19 12:02:21;;;;;;;2.10;0.72;;;;;;;9.84;74.30;96591.32;1665232;85;25829;-87
2022/09/19 12:05:30;;;;;;;0.75;0.75;;;;;;;9.97;74.30;96600.59;1665440;86;27403;-90
2022/09/19 12:08:12;;;;;;;0.55;0.55;;;;;;;10.05;73.81;96597.58;1665590;86;25770;-86
2022/09/19 12:10:44;;;;;;;0.88;0.88;;;;;;;10.23;74.10;96602.98;1665760;86;25706;-86
2022/09/19 12:13:25;;;;;;;2.02;1.10;;;;;;;10.46;74.35;96610.33;1665528;85;26058;-87
2022/09/19 12:15:59;;;;;;;2.02;1.10;;;;;;;10.63;74.22;96599.68;1665333;85;25782;-86
2022/09/19 12:18:52;;;;;;;1.67;1.10;;;;;;;10.81;73.91;96607.19;1664699;85;28059;-87
2022/09/19 12:21:22;;;;;;;1.10;1.00;;;;;;;10.89;73.60;96601.97;1665295;85;25790;-88
2022/09/19 12:26:56;;;;;;;1.40;0.90;;;;;;;10.94;73.69;96604.80;1665570;86;26025;-87
2022/09/19 12:29:43;;;;;;;2.33;1.00;;;;;;;10.94;73.01;96600.75;1665062;85;25859;-85
2022/09/19 12:32:22;;;;;;;2.02;1.27;;;;;;;10.88;72.99;96611.12;1665852;86;28138;-85